sensor_id;sensor_type;location;lat;lon;timestamp;temperature;humidity
18777;DHT22;9517;51.174;4.160;2022-07-23T00:00:21;16.90;99.90
18777;DHT22;9517;51.174;4.160;2022-07-23T00:02:49;16.80;99.90
18777;DHT22;9517;51.174;4.160;2022-07-23T00:05:16;16.80;99.90
18777;DHT22;9517;51.174;4.160;2022-07-23T00:07:44;16.80;99.90
18777;DHT22;9517;51.174;4.160;2022-07-23T00:10:11;16.80;99.90
18777;DHT22;9517;51.174;4.160;2022-07-23T00:12:38;16.80;99.90
18777;DHT22;9517;51.174;4.160;2022-07-23T00:15:07;16.60;99.90
18777;DHT22;9517;51.174;4.160;2022-07-23T00:17:34;16.60;99.90
18777;DHT22;9517;51.174;4.160;2022-07-23T00:20:04;16.50;99.90
18777;DHT22;9517;51.174;4.160;2022-07-23T00:22:31;16.60;99.90
18777;DHT22;9517;51.174;4.160;2022-07-23T00:24:58;16.50;99.90
18777;DHT22;9517;51.174;4.160;2022-07-23T00:27:25;16.50;99.90
18777;DHT22;9517;51.174;4.160;2022-07-23T00:29:53;16.50;99.90
18777;DHT22;9517;51.174;4.160;2022-07-23T00:32:20;16.40;99.90
18777;DHT22;9517;51.174;4.160;2022-07-23T00:34:47;16.30;99.90
18777;DHT22;9517;51.174;4.160;2022-07-23T00:37:15;16.20;99.90
18777;DHT22;9517;51.174;4.160;2022-07-23T00:39:42;16.30;99.90
18777;DHT22;9517;51.174;4.160;2022-07-23T00:42:09;16.30;99.90
18777;DHT22;9517;51.174;4.160;2022-07-23T00:44:37;16.30;99.90
18777;DHT22;9517;51.174;4.160;2022-07-23T00:47:04;16.30;99.90
18777;DHT22;9517;51.174;4.160;2022-07-23T00:49:32;16.20;99.90
18777;DHT22;9517;51.174;4.160;2022-07-23T00:52:01;16.20;99.90
18777;DHT22;9517;51.174;4.160;2022-07-23T00:54:30;16.10;99.90
18777;DHT22;9517;51.174;4.160;2022-07-23T00:56:57;16.10;99.90
18777;DHT22;9517;51.174;4.160;2022-07-23T00:59:24;16.10;99.90
18777;DHT22;9517;51.174;4.160;2022-07-23T01:01:52;16.10;99.90
18777;DHT22;9517;51.174;4.160;2022-07-23T01:04:19;16.00;99.90
18777;DHT22;9517;51.174;4.160;2022-07-23T01:06:46;15.90;99.90
18777;DHT22;9517;51.174;4.160;2022-07-23T01:09:13;16.00;99.90
18777;DHT22;9517;51.174;4.160;2022-07-23T01:11:42;16.00;99.90
18777;DHT22;9517;51.174;4.160;2022-07-23T01:14:11;15.90;99.90
18777;DHT22;9517;51.174;4.160;2022-07-23T01:16:39;15.90;99.90
18777;DHT22;9517;51.174;4.160;2022-07-23T01:19:06;15.80;99.90
18777;DHT22;9517;51.174;4.160;2022-07-23T01:21:38;15.70;99.90
18777;DHT22;9517;51.174;4.160;2022-07-23T01:24:08;15.80;99.90
18777;DHT22;9517;51.174;4.160;2022-07-23T01:26:36;15.70;99.90
18777;DHT22;9517;51.174;4.160;2022-07-23T01:29:04;15.50;99.90
18777;DHT22;9517;51.174;4.160;2022-07-23T01:31:32;15.60;99.90
18777;DHT22;9517;51.174;4.160;2022-07-23T01:33:59;15.60;99.90
18777;DHT22;9517;51.174;4.160;2022-07-23T01:36:26;15.60;99.90
18777;DHT22;9517;51.174;4.160;2022-07-23T01:38:53;15.60;99.90
18777;DHT22;9517;51.174;4.160;2022-07-23T01:41:22;15.70;99.90
18777;DHT22;9517;51.174;4.160;2022-07-23T01:43:49;15.60;99.90
18777;DHT22;9517;51.174;4.160;2022-07-23T01:46:16;15.60;99.90
18777;DHT22;9517;51.174;4.160;2022-07-23T01:48:44;15.60;99.90
18777;DHT22;9517;51.174;4.160;2022-07-23T01:51:11;15.60;99.90
18777;DHT22;9517;51.174;4.160;2022-07-23T01:53:38;15.60;99.90
18777;DHT22;9517;51.174;4.160;2022-07-23T01:56:06;15.60;99.90
18777;DHT22;9517;51.174;4.160;2022-07-23T01:58:35;15.60;99.90
18777;DHT22;9517;51.174;4.160;2022-07-23T02:01:02;15.60;99.90
18777;DHT22;9517;51.174;4.160;2022-07-23T02:03:30;15.50;99.90
18777;DHT22;9517;51.174;4.160;2022-07-23T02:05:57;15.40;99.90
18777;DHT22;9517;51.174;4.160;2022-07-23T02:08:24;15.30;99.90
18777;DHT22;9517;51.174;4.160;2022-07-23T02:10:53;15.20;99.90
18777;DHT22;9517;51.174;4.160;2022-07-23T02:13:20;15.20;99.90
18777;DHT22;9517;51.174;4.160;2022-07-23T02:15:48;15.20;99.90
18777;DHT22;9517;51.174;4.160;2022-07-23T02:18:16;15.10;99.90
18777;DHT22;9517;51.174;4.160;2022-07-23T02:20:43;15.00;99.90
18777;DHT22;9517;51.174;4.160;2022-07-23T02:23:10;15.00;99.90
18777;DHT22;9517;51.174;4.160;2022-07-23T02:25:37;14.90;99.90
18777;DHT22;9517;51.174;4.160;2022-07-23T02:28:04;15.00;99.90
18777;DHT22;9517;51.174;4.160;2022-07-23T02:30:32;15.10;99.90
18777;DHT22;9517;51.174;4.160;2022-07-23T02:33:00;15.10;99.90
18777;DHT22;9517;51.174;4.160;2022-07-23T02:35:27;15.10;99.90
18777;DHT22;9517;51.174;4.160;2022-07-23T02:37:55;15.10;99.90
18777;DHT22;9517;51.174;4.160;2022-07-23T02:40:22;15.10;99.90
18777;DHT22;9517;51.174;4.160;2022-07-23T02:42:49;15.10;99.90
18777;DHT22;9517;51.174;4.160;2022-07-23T02:45:16;15.10;99.90
18777;DHT22;9517;51.174;4.160;2022-07-23T02:47:43;15.00;99.90
18777;DHT22;9517;51.174;4.160;2022-07-23T02:50:14;14.90;99.90
18777;DHT22;9517;51.174;4.160;2022-07-23T02:52:41;14.90;99.90
18777;DHT22;9517;51.174;4.160;2022-07-23T02:55:09;14.80;99.90
18777;DHT22;9517;51.174;4.160;2022-07-23T02:57:36;14.80;99.90
18777;DHT22;9517;51.174;4.160;2022-07-23T03:00:05;14.80;99.90
18777;DHT22;9517;51.174;4.160;2022-07-23T03:02:33;14.80;99.90
18777;DHT22;9517;51.174;4.160;2022-07-23T03:05:00;14.80;99.90
18777;DHT22;9517;51.174;4.160;2022-07-23T03:07:28;14.70;99.90
18777;DHT22;9517;51.174;4.160;2022-07-23T03:09:55;14.70;99.90
18777;DHT22;9517;51.174;4.160;2022-07-23T03:12:23;14.70;99.90
18777;DHT22;9517;51.174;4.160;2022-07-23T03:14:50;14.70;99.90
18777;DHT22;9517;51.174;4.160;2022-07-23T03:17:17;14.70;99.90
18777;DHT22;9517;51.174;4.160;2022-07-23T03:19:44;14.60;99.90
18777;DHT22;9517;51.174;4.160;2022-07-23T03:22:11;14.60;99.90
18777;DHT22;9517;51.174;4.160;2022-07-23T03:24:40;14.50;99.90
18777;DHT22;9517;51.174;4.160;2022-07-23T03:27:22;14.50;99.90
18777;DHT22;9517;51.174;4.160;2022-07-23T03:29:50;14.50;99.90
18777;DHT22;9517;51.174;4.160;2022-07-23T03:32:17;14.60;99.90
18777;DHT22;9517;51.174;4.160;2022-07-23T03:34:44;14.60;99.90
18777;DHT22;9517;51.174;4.160;2022-07-23T03:37:12;14.60;99.90
18777;DHT22;9517;51.174;4.160;2022-07-23T03:39:40;14.60;99.90
18777;DHT22;9517;51.174;4.160;2022-07-23T03:42:07;14.60;99.90
18777;DHT22;9517;51.174;4.160;2022-07-23T03:44:35;14.60;99.90
18777;DHT22;9517;51.174;4.160;2022-07-23T03:47:04;14.60;99.90
18777;DHT22;9517;51.174;4.160;2022-07-23T03:49:32;14.60;99.90
18777;DHT22;9517;51.174;4.160;2022-07-23T03:51:59;14.50;99.90
18777;DHT22;9517;51.174;4.160;2022-07-23T03:54:27;14.50;99.90
18777;DHT22;9517;51.174;4.160;2022-07-23T03:56:55;14.50;99.90
18777;DHT22;9517;51.174;4.160;2022-07-23T03:59:22;14.50;99.90
18777;DHT22;9517;51.174;4.160;2022-07-23T04:01:49;14.40;99.90
18777;DHT22;9517;51.174;4.160;2022-07-23T04:04:17;14.40;99.90
18777;DHT22;9517;51.174;4.160;2022-07-23T04:06:44;14.50;99.90
18777;DHT22;9517;51.174;4.160;2022-07-23T04:09:11;14.50;99.90
18777;DHT22;9517;51.174;4.160;2022-07-23T04:11:38;14.50;99.90
18777;DHT22;9517;51.174;4.160;2022-07-23T04:14:07;14.40;99.90
18777;DHT22;9517;51.174;4.160;2022-07-23T04:16:37;14.40;99.90
18777;DHT22;9517;51.174;4.160;2022-07-23T04:19:04;14.40;99.90
18777;DHT22;9517;51.174;4.160;2022-07-23T04:21:34;14.40;99.90
18777;DHT22;9517;51.174;4.160;2022-07-23T04:24:02;14.40;99.90
18777;DHT22;9517;51.174;4.160;2022-07-23T04:26:29;14.50;99.90
18777;DHT22;9517;51.174;4.160;2022-07-23T04:28:56;14.50;99.90
18777;DHT22;9517;51.174;4.160;2022-07-23T04:31:24;14.50;99.90
18777;DHT22;9517;51.174;4.160;2022-07-23T04:33:52;14.50;99.90
18777;DHT22;9517;51.174;4.160;2022-07-23T04:36:19;14.60;99.90
18777;DHT22;9517;51.174;4.160;2022-07-23T04:38:46;14.70;99.90
18777;DHT22;9517;51.174;4.160;2022-07-23T04:41:13;14.80;99.90
18777;DHT22;9517;51.174;4.160;2022-07-23T04:43:40;14.80;99.90
18777;DHT22;9517;51.174;4.160;2022-07-23T04:46:07;14.80;99.90
18777;DHT22;9517;51.174;4.160;2022-07-23T04:48:37;14.80;99.90
18777;DHT22;9517;51.174;4.160;2022-07-23T04:51:05;14.80;99.90
18777;DHT22;9517;51.174;4.160;2022-07-23T04:53:32;14.80;99.90
18777;DHT22;9517;51.174;4.160;2022-07-23T04:56:00;14.90;99.90
18777;DHT22;9517;51.174;4.160;2022-07-23T04:58:27;15.00;99.90
18777;DHT22;9517;51.174;4.160;2022-07-23T05:00:54;15.10;99.90
18777;DHT22;9517;51.174;4.160;2022-07-23T05:03:23;15.10;99.90
18777;DHT22;9517;51.174;4.160;2022-07-23T05:05:52;15.10;99.90
18777;DHT22;9517;51.174;4.160;2022-07-23T05:08:19;15.30;99.90
18777;DHT22;9517;51.174;4.160;2022-07-23T05:10:46;15.40;99.90
18777;DHT22;9517;51.174;4.160;2022-07-23T05:13:14;15.50;99.90
18777;DHT22;9517;51.174;4.160;2022-07-23T05:15:42;15.60;99.90
18777;DHT22;9517;51.174;4.160;2022-07-23T05:18:09;15.70;99.90
18777;DHT22;9517;51.174;4.160;2022-07-23T05:20:36;15.80;99.90
18777;DHT22;9517;51.174;4.160;2022-07-23T05:23:05;15.90;99.90
18777;DHT22;9517;51.174;4.160;2022-07-23T05:25:32;16.00;99.90
18777;DHT22;9517;51.174;4.160;2022-07-23T05:27:59;16.20;99.90
18777;DHT22;9517;51.174;4.160;2022-07-23T05:30:26;16.30;99.90
18777;DHT22;9517;51.174;4.160;2022-07-23T05:32:53;16.40;99.90
18777;DHT22;9517;51.174;4.160;2022-07-23T05:35:21;16.50;99.90
18777;DHT22;9517;51.174;4.160;2022-07-23T05:37:48;16.70;99.90
18777;DHT22;9517;51.174;4.160;2022-07-23T05:40:17;16.80;99.90
18777;DHT22;9517;51.174;4.160;2022-07-23T05:42:44;17.00;99.90
18777;DHT22;9517;51.174;4.160;2022-07-23T05:45:11;17.10;99.90
18777;DHT22;9517;51.174;4.160;2022-07-23T05:47:42;17.30;99.90
18777;DHT22;9517;51.174;4.160;2022-07-23T05:50:10;17.40;99.90
18777;DHT22;9517;51.174;4.160;2022-07-23T05:52:38;17.50;99.90
18777;DHT22;9517;51.174;4.160;2022-07-23T05:55:06;17.50;99.90
18777;DHT22;9517;51.174;4.160;2022-07-23T05:57:36;17.50;99.90
18777;DHT22;9517;51.174;4.160;2022-07-23T06:00:06;17.50;99.90
18777;DHT22;9517;51.174;4.160;2022-07-23T06:02:33;17.60;99.90
18777;DHT22;9517;51.174;4.160;2022-07-23T06:05:00;17.70;99.90
18777;DHT22;9517;51.174;4.160;2022-07-23T06:07:27;17.90;99.90
18777;DHT22;9517;51.174;4.160;2022-07-23T06:09:54;18.00;99.90
18777;DHT22;9517;51.174;4.160;2022-07-23T06:12:21;18.00;99.90
18777;DHT22;9517;51.174;4.160;2022-07-23T06:14:51;18.10;99.90
18777;DHT22;9517;51.174;4.160;2022-07-23T06:17:18;18.20;99.90
18777;DHT22;9517;51.174;4.160;2022-07-23T06:19:45;18.30;99.90
18777;DHT22;9517;51.174;4.160;2022-07-23T06:22:13;18.30;99.90
18777;DHT22;9517;51.174;4.160;2022-07-23T06:24:40;18.40;99.90
18777;DHT22;9517;51.174;4.160;2022-07-23T06:27:07;18.60;99.90
18777;DHT22;9517;51.174;4.160;2022-07-23T06:29:34;18.80;99.90
18777;DHT22;9517;51.174;4.160;2022-07-23T06:32:03;18.90;99.90
18777;DHT22;9517;51.174;4.160;2022-07-23T06:34:30;19.00;99.90
18777;DHT22;9517;51.174;4.160;2022-07-23T06:36:57;19.20;99.90
18777;DHT22;9517;51.174;4.160;2022-07-23T06:39:24;19.20;99.90
18777;DHT22;9517;51.174;4.160;2022-07-23T06:41:51;19.40;99.90
18777;DHT22;9517;51.174;4.160;2022-07-23T06:44:18;19.50;99.90
18777;DHT22;9517;51.174;4.160;2022-07-23T06:46:45;19.60;99.90
18777;DHT22;9517;51.174;4.160;2022-07-23T06:49:13;19.70;99.90
18777;DHT22;9517;51.174;4.160;2022-07-23T06:51:40;19.90;99.90
18777;DHT22;9517;51.174;4.160;2022-07-23T06:54:07;20.20;99.90
18777;DHT22;9517;51.174;4.160;2022-07-23T06:56:34;20.20;99.90
18777;DHT22;9517;51.174;4.160;2022-07-23T06:59:01;20.30;99.90
18777;DHT22;9517;51.174;4.160;2022-07-23T07:01:29;20.30;99.90
18777;DHT22;9517;51.174;4.160;2022-07-23T07:03:56;20.40;99.90
18777;DHT22;9517;51.174;4.160;2022-07-23T07:06:24;20.60;99.90
18777;DHT22;9517;51.174;4.160;2022-07-23T07:08:51;20.80;99.90
18777;DHT22;9517;51.174;4.160;2022-07-23T07:11:18;20.80;99.90
18777;DHT22;9517;51.174;4.160;2022-07-23T07:13:45;20.90;99.90
18777;DHT22;9517;51.174;4.160;2022-07-23T07:16:12;21.00;99.90
18777;DHT22;9517;51.174;4.160;2022-07-23T07:18:39;21.20;99.90
18777;DHT22;9517;51.174;4.160;2022-07-23T07:21:06;21.10;99.90
18777;DHT22;9517;51.174;4.160;2022-07-23T07:23:34;21.40;99.90
18777;DHT22;9517;51.174;4.160;2022-07-23T07:26:01;21.60;99.90
18777;DHT22;9517;51.174;4.160;2022-07-23T07:28:28;21.70;99.90
18777;DHT22;9517;51.174;4.160;2022-07-23T07:30:55;21.80;99.90
18777;DHT22;9517;51.174;4.160;2022-07-23T07:33:22;22.10;99.90
18777;DHT22;9517;51.174;4.160;2022-07-23T07:35:49;21.90;99.90
18777;DHT22;9517;51.174;4.160;2022-07-23T07:38:16;21.90;99.90
18777;DHT22;9517;51.174;4.160;2022-07-23T07:40:45;21.90;99.90
18777;DHT22;9517;51.174;4.160;2022-07-23T07:43:12;22.20;99.90
18777;DHT22;9517;51.174;4.160;2022-07-23T07:45:39;22.40;99.90
18777;DHT22;9517;51.174;4.160;2022-07-23T07:48:06;22.30;99.90
18777;DHT22;9517;51.174;4.160;2022-07-23T07:50:33;22.20;99.90
18777;DHT22;9517;51.174;4.160;2022-07-23T07:53:00;22.30;99.90
18777;DHT22;9517;51.174;4.160;2022-07-23T07:55:27;22.50;99.90
18777;DHT22;9517;51.174;4.160;2022-07-23T07:57:55;22.40;99.90
18777;DHT22;9517;51.174;4.160;2022-07-23T08:00:22;22.60;99.90
18777;DHT22;9517;51.174;4.160;2022-07-23T08:02:50;23.00;99.90
18777;DHT22;9517;51.174;4.160;2022-07-23T08:05:19;23.20;99.90
18777;DHT22;9517;51.174;4.160;2022-07-23T08:07:47;23.30;99.90
18777;DHT22;9517;51.174;4.160;2022-07-23T08:10:14;23.40;99.90
18777;DHT22;9517;51.174;4.160;2022-07-23T08:12:43;23.80;99.90
18777;DHT22;9517;51.174;4.160;2022-07-23T08:15:13;24.20;99.90
18777;DHT22;9517;51.174;4.160;2022-07-23T08:17:41;24.00;99.90
18777;DHT22;9517;51.174;4.160;2022-07-23T08:20:10;23.70;99.90
18777;DHT22;9517;51.174;4.160;2022-07-23T08:22:48;23.40;99.90
18777;DHT22;9517;51.174;4.160;2022-07-23T08:25:16;23.40;99.90
18777;DHT22;9517;51.174;4.160;2022-07-23T08:27:46;23.20;99.90
18777;DHT22;9517;51.174;4.160;2022-07-23T08:30:16;23.40;99.90
18777;DHT22;9517;51.174;4.160;2022-07-23T08:32:58;23.70;99.90
18777;DHT22;9517;51.174;4.160;2022-07-23T08:35:28;24.20;99.90
18777;DHT22;9517;51.174;4.160;2022-07-23T08:37:57;24.30;99.90
18777;DHT22;9517;51.174;4.160;2022-07-23T08:40:26;24.60;99.90
18777;DHT22;9517;51.174;4.160;2022-07-23T08:42:53;25.00;99.90
18777;DHT22;9517;51.174;4.160;2022-07-23T08:45:24;25.00;99.90
18777;DHT22;9517;51.174;4.160;2022-07-23T08:47:53;25.10;99.90
18777;DHT22;9517;51.174;4.160;2022-07-23T08:50:20;25.10;99.90
18777;DHT22;9517;51.174;4.160;2022-07-23T08:52:48;25.50;99.90
18777;DHT22;9517;51.174;4.160;2022-07-23T08:55:16;25.60;99.90
18777;DHT22;9517;51.174;4.160;2022-07-23T08:57:44;25.80;99.90
18777;DHT22;9517;51.174;4.160;2022-07-23T09:00:12;25.80;99.90
18777;DHT22;9517;51.174;4.160;2022-07-23T09:02:42;25.90;99.90
18777;DHT22;9517;51.174;4.160;2022-07-23T09:05:10;26.00;99.90
18777;DHT22;9517;51.174;4.160;2022-07-23T09:07:38;25.90;99.90
18777;DHT22;9517;51.174;4.160;2022-07-23T09:10:25;25.20;99.90
18777;DHT22;9517;51.174;4.160;2022-07-23T09:12:52;25.10;99.90
18777;DHT22;9517;51.174;4.160;2022-07-23T09:15:19;25.50;99.90
18777;DHT22;9517;51.174;4.160;2022-07-23T09:17:47;25.80;99.90
18777;DHT22;9517;51.174;4.160;2022-07-23T09:20:15;25.60;99.90
18777;DHT22;9517;51.174;4.160;2022-07-23T09:22:45;25.80;99.90
18777;DHT22;9517;51.174;4.160;2022-07-23T09:25:14;26.20;99.90
18777;DHT22;9517;51.174;4.160;2022-07-23T09:27:53;26.90;99.90
18777;DHT22;9517;51.174;4.160;2022-07-23T09:30:22;27.00;99.90
18777;DHT22;9517;51.174;4.160;2022-07-23T09:33:08;27.20;99.90
18777;DHT22;9517;51.174;4.160;2022-07-23T09:35:46;27.40;99.90
18777;DHT22;9517;51.174;4.160;2022-07-23T09:38:14;27.90;99.90
18777;DHT22;9517;51.174;4.160;2022-07-23T09:40:41;28.10;99.90
18777;DHT22;9517;51.174;4.160;2022-07-23T09:43:09;27.90;99.90
18777;DHT22;9517;51.174;4.160;2022-07-23T09:45:36;27.50;99.90
18777;DHT22;9517;51.174;4.160;2022-07-23T09:48:12;27.20;99.90
18777;DHT22;9517;51.174;4.160;2022-07-23T09:50:40;27.10;99.90
18777;DHT22;9517;51.174;4.160;2022-07-23T09:53:07;27.70;99.90
18777;DHT22;9517;51.174;4.160;2022-07-23T09:55:36;27.90;99.90
18777;DHT22;9517;51.174;4.160;2022-07-23T09:58:05;27.30;99.90
18777;DHT22;9517;51.174;4.160;2022-07-23T10:00:33;27.30;99.90
18777;DHT22;9517;51.174;4.160;2022-07-23T10:03:01;27.30;99.90
18777;DHT22;9517;51.174;4.160;2022-07-23T10:05:31;27.30;99.90
18777;DHT22;9517;51.174;4.160;2022-07-23T10:08:01;27.20;99.90
18777;DHT22;9517;51.174;4.160;2022-07-23T10:10:29;27.50;99.90
18777;DHT22;9517;51.174;4.160;2022-07-23T10:12:57;27.60;99.90
18777;DHT22;9517;51.174;4.160;2022-07-23T10:15:40;27.70;99.90
18777;DHT22;9517;51.174;4.160;2022-07-23T10:18:08;27.20;99.90
18777;DHT22;9517;51.174;4.160;2022-07-23T10:20:38;27.20;99.90
18777;DHT22;9517;51.174;4.160;2022-07-23T10:23:16;27.50;99.90
18777;DHT22;9517;51.174;4.160;2022-07-23T10:25:51;28.40;99.90
18777;DHT22;9517;51.174;4.160;2022-07-23T10:31:28;28.50;99.90
18777;DHT22;9517;51.174;4.160;2022-07-23T10:34:05;28.50;99.90
18777;DHT22;9517;51.174;4.160;2022-07-23T10:36:42;29.10;99.90
18777;DHT22;9517;51.174;4.160;2022-07-23T10:39:17;28.70;99.90
18777;DHT22;9517;51.174;4.160;2022-07-23T10:41:45;29.50;99.90
18777;DHT22;9517;51.174;4.160;2022-07-23T10:44:13;30.00;99.90
18777;DHT22;9517;51.174;4.160;2022-07-23T10:46:57;30.40;99.90
18777;DHT22;9517;51.174;4.160;2022-07-23T10:49:34;30.20;99.90
18777;DHT22;9517;51.174;4.160;2022-07-23T10:52:22;31.00;99.90
18777;DHT22;9517;51.174;4.160;2022-07-23T10:54:51;31.60;99.90
18777;DHT22;9517;51.174;4.160;2022-07-23T10:57:19;31.70;99.90
18777;DHT22;9517;51.174;4.160;2022-07-23T11:00:16;32.20;99.90
18777;DHT22;9517;51.174;4.160;2022-07-23T11:02:45;31.40;99.90
18777;DHT22;9517;51.174;4.160;2022-07-23T11:05:14;31.90;99.90
18777;DHT22;9517;51.174;4.160;2022-07-23T11:08:12;31.50;99.90
18777;DHT22;9517;51.174;4.160;2022-07-23T11:10:42;31.90;99.90
18777;DHT22;9517;51.174;4.160;2022-07-23T11:13:36;32.20;99.90
18777;DHT22;9517;51.174;4.160;2022-07-23T11:16:11;32.50;99.90
18777;DHT22;9517;51.174;4.160;2022-07-23T11:19:05;32.60;99.90
18777;DHT22;9517;51.174;4.160;2022-07-23T11:21:50;33.00;99.90
18777;DHT22;9517;51.174;4.160;2022-07-23T11:24:20;34.20;99.90
18777;DHT22;9517;51.174;4.160;2022-07-23T11:26:50;35.00;99.20
18777;DHT22;9517;51.174;4.160;2022-07-23T11:29:41;35.20;97.90
18777;DHT22;9517;51.174;4.160;2022-07-23T11:35:01;35.80;96.50
18777;DHT22;9517;51.174;4.160;2022-07-23T11:37:33;36.70;93.40
18777;DHT22;9517;51.174;4.160;2022-07-23T11:40:05;37.80;92.20
18777;DHT22;9517;51.174;4.160;2022-07-23T11:42:34;37.90;91.10
18777;DHT22;9517;51.174;4.160;2022-07-23T11:45:01;38.10;88.20
18777;DHT22;9517;51.174;4.160;2022-07-23T11:47:28;38.20;86.10
18777;DHT22;9517;51.174;4.160;2022-07-23T11:49:55;38.00;85.40
18777;DHT22;9517;51.174;4.160;2022-07-23T11:52:23;38.10;81.20
18777;DHT22;9517;51.174;4.160;2022-07-23T11:54:53;38.20;80.20
18777;DHT22;9517;51.174;4.160;2022-07-23T11:57:25;38.10;76.90
18777;DHT22;9517;51.174;4.160;2022-07-23T11:59:56;38.10;80.40
18777;DHT22;9517;51.174;4.160;2022-07-23T12:02:24;38.00;74.20
18777;DHT22;9517;51.174;4.160;2022-07-23T12:04:52;37.00;77.70
18777;DHT22;9517;51.174;4.160;2022-07-23T12:07:31;36.80;75.30
18777;DHT22;9517;51.174;4.160;2022-07-23T12:09:59;35.70;79.10
18777;DHT22;9517;51.174;4.160;2022-07-23T12:12:35;35.10;76.60
18777;DHT22;9517;51.174;4.160;2022-07-23T12:15:03;35.70;78.10
18777;DHT22;9517;51.174;4.160;2022-07-23T12:17:32;36.10;77.20
18777;DHT22;9517;51.174;4.160;2022-07-23T12:20:00;36.90;76.50
18777;DHT22;9517;51.174;4.160;2022-07-23T12:22:34;37.10;76.50
18777;DHT22;9517;51.174;4.160;2022-07-23T12:25:04;36.00;76.80
18777;DHT22;9517;51.174;4.160;2022-07-23T12:27:34;36.50;80.60
18777;DHT22;9517;51.174;4.160;2022-07-23T12:30:16;36.30;78.40
18777;DHT22;9517;51.174;4.160;2022-07-23T12:32:44;35.80;78.00
18777;DHT22;9517;51.174;4.160;2022-07-23T12:35:11;33.70;79.60
18777;DHT22;9517;51.174;4.160;2022-07-23T12:37:40;32.80;83.00
18777;DHT22;9517;51.174;4.160;2022-07-23T12:40:22;32.80;84.90
18777;DHT22;9517;51.174;4.160;2022-07-23T12:42:54;33.50;84.60
18777;DHT22;9517;51.174;4.160;2022-07-23T12:45:21;33.60;81.50
18777;DHT22;9517;51.174;4.160;2022-07-23T12:47:56;34.00;81.40
18777;DHT22;9517;51.174;4.160;2022-07-23T12:50:39;33.80;81.10
18777;DHT22;9517;51.174;4.160;2022-07-23T12:53:08;34.30;80.40
18777;DHT22;9517;51.174;4.160;2022-07-23T12:55:36;34.40;80.40
18777;DHT22;9517;51.174;4.160;2022-07-23T12:58:07;36.00;83.00
18777;DHT22;9517;51.174;4.160;2022-07-23T13:00:58;35.60;79.70
18777;DHT22;9517;51.174;4.160;2022-07-23T13:03:28;36.40;85.10
18777;DHT22;9517;51.174;4.160;2022-07-23T13:05:56;36.50;82.30
18777;DHT22;9517;51.174;4.160;2022-07-23T13:08:24;36.80;80.80
18777;DHT22;9517;51.174;4.160;2022-07-23T13:10:51;37.90;78.30
18777;DHT22;9517;51.174;4.160;2022-07-23T13:13:26;36.90;76.00
18777;DHT22;9517;51.174;4.160;2022-07-23T13:15:54;34.70;81.70
18777;DHT22;9517;51.174;4.160;2022-07-23T13:18:21;34.60;81.20
18777;DHT22;9517;51.174;4.160;2022-07-23T13:20:48;34.20;81.60
18777;DHT22;9517;51.174;4.160;2022-07-23T13:23:16;34.40;83.60
18777;DHT22;9517;51.174;4.160;2022-07-23T13:25:43;35.40;85.30
18777;DHT22;9517;51.174;4.160;2022-07-23T13:28:10;35.50;83.60
18777;DHT22;9517;51.174;4.160;2022-07-23T13:30:39;36.40;81.20
18777;DHT22;9517;51.174;4.160;2022-07-23T13:33:07;36.40;81.90
18777;DHT22;9517;51.174;4.160;2022-07-23T13:35:36;35.80;80.50
18777;DHT22;9517;51.174;4.160;2022-07-23T13:38:04;35.60;80.70
18777;DHT22;9517;51.174;4.160;2022-07-23T13:40:33;34.70;84.20
18777;DHT22;9517;51.174;4.160;2022-07-23T13:43:00;33.90;85.30
18777;DHT22;9517;51.174;4.160;2022-07-23T13:45:27;34.60;86.40
18777;DHT22;9517;51.174;4.160;2022-07-23T13:47:56;34.30;83.00
18777;DHT22;9517;51.174;4.160;2022-07-23T13:50:23;33.90;83.20
18777;DHT22;9517;51.174;4.160;2022-07-23T13:52:50;33.90;83.60
18777;DHT22;9517;51.174;4.160;2022-07-23T13:55:17;34.40;85.80
18777;DHT22;9517;51.174;4.160;2022-07-23T13:57:44;34.90;83.10
18777;DHT22;9517;51.174;4.160;2022-07-23T14:00:12;35.00;84.90
18777;DHT22;9517;51.174;4.160;2022-07-23T14:02:40;34.70;84.40
18777;DHT22;9517;51.174;4.160;2022-07-23T14:05:10;33.60;84.10
18777;DHT22;9517;51.174;4.160;2022-07-23T14:07:38;33.60;85.90
18777;DHT22;9517;51.174;4.160;2022-07-23T14:10:07;34.10;86.50
18777;DHT22;9517;51.174;4.160;2022-07-23T14:12:34;34.30;88.60
18777;DHT22;9517;51.174;4.160;2022-07-23T14:15:02;34.20;85.20
18777;DHT22;9517;51.174;4.160;2022-07-23T14:17:30;34.00;85.30
18777;DHT22;9517;51.174;4.160;2022-07-23T14:19:57;33.90;85.60
18777;DHT22;9517;51.174;4.160;2022-07-23T14:22:25;34.60;86.60
18777;DHT22;9517;51.174;4.160;2022-07-23T14:24:52;34.40;85.00
18777;DHT22;9517;51.174;4.160;2022-07-23T14:27:19;33.30;85.40
18777;DHT22;9517;51.174;4.160;2022-07-23T14:29:47;32.50;89.90
18777;DHT22;9517;51.174;4.160;2022-07-23T14:32:14;32.50;91.00
18777;DHT22;9517;51.174;4.160;2022-07-23T14:34:41;32.50;87.80
18777;DHT22;9517;51.174;4.160;2022-07-23T14:37:09;32.10;89.30
18777;DHT22;9517;51.174;4.160;2022-07-23T14:39:38;32.70;91.50
18777;DHT22;9517;51.174;4.160;2022-07-23T14:42:06;33.70;89.60
18777;DHT22;9517;51.174;4.160;2022-07-23T14:44:33;34.40;88.60
18777;DHT22;9517;51.174;4.160;2022-07-23T14:47:00;34.50;84.20
18777;DHT22;9517;51.174;4.160;2022-07-23T14:49:29;33.60;86.70
18777;DHT22;9517;51.174;4.160;2022-07-23T14:51:56;34.10;89.00
18777;DHT22;9517;51.174;4.160;2022-07-23T14:54:23;33.70;87.80
18777;DHT22;9517;51.174;4.160;2022-07-23T14:56:52;33.60;87.40
18777;DHT22;9517;51.174;4.160;2022-07-23T14:59:20;33.60;87.00
18777;DHT22;9517;51.174;4.160;2022-07-23T15:01:47;33.70;87.90
18777;DHT22;9517;51.174;4.160;2022-07-23T15:04:14;33.30;86.50
18777;DHT22;9517;51.174;4.160;2022-07-23T15:06:42;33.40;89.50
18777;DHT22;9517;51.174;4.160;2022-07-23T15:09:10;33.70;89.70
18777;DHT22;9517;51.174;4.160;2022-07-23T15:11:37;34.60;87.40
18777;DHT22;9517;51.174;4.160;2022-07-23T15:14:06;35.20;86.20
18777;DHT22;9517;51.174;4.160;2022-07-23T15:16:34;35.40;86.20
18777;DHT22;9517;51.174;4.160;2022-07-23T15:19:01;36.00;85.90
18777;DHT22;9517;51.174;4.160;2022-07-23T15:21:28;35.90;83.60
18777;DHT22;9517;51.174;4.160;2022-07-23T15:23:56;36.00;83.40
18777;DHT22;9517;51.174;4.160;2022-07-23T15:26:24;35.50;84.00
18777;DHT22;9517;51.174;4.160;2022-07-23T15:28:51;35.50;84.90
18777;DHT22;9517;51.174;4.160;2022-07-23T15:31:20;35.40;83.40
18777;DHT22;9517;51.174;4.160;2022-07-23T15:33:47;34.80;85.20
18777;DHT22;9517;51.174;4.160;2022-07-23T15:36:14;34.20;86.60
18777;DHT22;9517;51.174;4.160;2022-07-23T15:38:43;34.30;85.70
18777;DHT22;9517;51.174;4.160;2022-07-23T15:41:10;34.30;87.00
18777;DHT22;9517;51.174;4.160;2022-07-23T15:43:37;35.10;87.00
18777;DHT22;9517;51.174;4.160;2022-07-23T15:46:04;35.40;83.80
18777;DHT22;9517;51.174;4.160;2022-07-23T15:48:34;35.30;85.70
18777;DHT22;9517;51.174;4.160;2022-07-23T15:51:01;35.00;83.50
18777;DHT22;9517;51.174;4.160;2022-07-23T15:53:28;34.50;86.30
18777;DHT22;9517;51.174;4.160;2022-07-23T15:55:55;34.70;87.80
18777;DHT22;9517;51.174;4.160;2022-07-23T15:58:22;34.80;85.70
18777;DHT22;9517;51.174;4.160;2022-07-23T16:00:49;34.40;85.20